sensor_id;sensor_type;location;lat;lon;timestamp;pressure;altitude;pressure_sealevel;temperature;humidity
62126;BME280;48112;53.282;6.150;2023-01-10T00:00:25;100998.13;;;15.69;62.46
62126;BME280;48112;53.282;6.150;2023-01-10T00:01:29;100998.13;;;15.69;62.29
62126;BME280;48112;53.282;6.150;2023-01-10T00:02:31;100994.25;;;15.70;62.21
62126;BME280;48112;53.282;6.150;2023-01-10T00:03:33;100996.16;;;15.70;62.28
62126;BME280;48112;53.282;6.150;2023-01-10T00:04:35;101000.84;;;15.69;62.51
62126;BME280;48112;53.282;6.150;2023-01-10T00:05:38;101003.56;;;15.69;62.38
62126;BME280;48112;53.282;6.150;2023-01-10T00:06:40;101001.63;;;15.70;62.22
62126;BME280;48112;53.282;6.150;2023-01-10T00:07:42;101003.56;;;15.69;62.18
62126;BME280;48112;53.282;6.150;2023-01-10T00:08:44;101008.22;;;15.69;62.18
62126;BME280;48112;53.282;6.150;2023-01-10T00:09:47;101007.84;;;15.70;62.33
62126;BME280;48112;53.282;6.150;2023-01-10T00:10:50;101009.00;;;15.69;62.25
62126;BME280;48112;53.282;6.150;2023-01-10T00:11:52;101013.28;;;15.70;62.17
62126;BME280;48112;53.282;6.150;2023-01-10T00:13:21;101019.13;;;15.69;62.37
62126;BME280;48112;53.282;6.150;2023-01-10T00:14:26;101017.94;;;15.70;62.08
62126;BME280;48112;53.282;6.150;2023-01-10T00:15:30;101017.19;;;15.69;62.13
62126;BME280;48112;53.282;6.150;2023-01-10T00:16:33;101014.47;;;15.69;62.11
62126;BME280;48112;53.282;6.150;2023-01-10T00:17:34;101014.47;;;15.69;62.05
62126;BME280;48112;53.282;6.150;2023-01-10T00:18:37;101028.06;;;15.69;62.27
62126;BME280;48112;53.282;6.150;2023-01-10T00:19:39;101029.22;;;15.68;61.96
62126;BME280;48112;53.282;6.150;2023-01-10T00:20:41;101031.56;;;15.70;62.17
62126;BME280;48112;53.282;6.150;2023-01-10T00:21:44;101028.06;;;15.69;62.28
62126;BME280;48112;53.282;6.150;2023-01-10T00:22:47;101030.00;;;15.69;62.23
62126;BME280;48112;53.282;6.150;2023-01-10T00:23:50;101029.22;;;15.68;62.19
62126;BME280;48112;53.282;6.150;2023-01-10T00:24:52;101038.16;;;15.69;62.20
62126;BME280;48112;53.282;6.150;2023-01-10T00:25:55;101035.44;;;15.69;62.09
62126;BME280;48112;53.282;6.150;2023-01-10T00:26:58;101042.81;;;15.68;62.11
62126;BME280;48112;53.282;6.150;2023-01-10T00:28:00;101040.09;;;15.68;62.14
62126;BME280;48112;53.282;6.150;2023-01-10T00:29:08;101056.44;;;15.68;62.13
62126;BME280;48112;53.282;6.150;2023-01-10T00:30:10;101048.25;;;15.68;61.98
62126;BME280;48112;53.282;6.150;2023-01-10T00:31:14;101049.84;;;15.69;62.07
62126;BME280;48112;53.282;6.150;2023-01-10T00:32:17;101057.22;;;15.69;62.01
62126;BME280;48112;53.282;6.150;2023-01-10T00:33:19;101051.78;;;15.69;62.08
62126;BME280;48112;53.282;6.150;2023-01-10T00:34:22;101056.44;;;15.68;62.00
62126;BME280;48112;53.282;6.150;2023-01-10T00:35:24;101062.66;;;15.69;61.90
62126;BME280;48112;53.282;6.150;2023-01-10T00:36:26;101061.88;;;15.68;61.83
62126;BME280;48112;53.282;6.150;2023-01-10T00:37:28;101069.28;;;15.68;62.04
62126;BME280;48112;53.282;6.150;2023-01-10T00:38:31;101067.31;;;15.68;61.78
62126;BME280;48112;53.282;6.150;2023-01-10T00:39:33;101061.88;;;15.68;62.00
62126;BME280;48112;53.282;6.150;2023-01-10T00:40:36;101059.16;;;15.68;62.03
62126;BME280;48112;53.282;6.150;2023-01-10T00:41:39;101067.31;;;15.68;62.02
62126;BME280;48112;53.282;6.150;2023-01-10T00:42:59;101069.28;;;15.68;61.89
62126;BME280;48112;53.282;6.150;2023-01-10T00:44:20;101073.94;;;15.67;61.92
62126;BME280;48112;53.282;6.150;2023-01-10T00:45:23;101077.44;;;15.68;61.77
62126;BME280;48112;53.282;6.150;2023-01-10T00:46:27;101078.56;;;15.67;61.73
62126;BME280;48112;53.282;6.150;2023-01-10T00:47:28;101076.66;;;15.67;61.82
62126;BME280;48112;53.282;6.150;2023-01-10T00:48:31;101081.28;;;15.67;62.03
62126;BME280;48112;53.282;6.150;2023-01-10T00:49:32;101086.75;;;15.67;61.55
62126;BME280;48112;53.282;6.150;2023-01-10T00:50:35;101082.09;;;15.67;61.86
62126;BME280;48112;53.282;6.150;2023-01-10T00:51:37;101081.28;;;15.67;61.96
62126;BME280;48112;53.282;6.150;2023-01-10T00:52:39;101082.09;;;15.67;61.92
62126;BME280;48112;53.282;6.150;2023-01-10T00:53:41;101087.53;;;15.67;61.71
62126;BME280;48112;53.282;6.150;2023-01-10T00:54:43;101097.63;;;15.67;61.68
62126;BME280;48112;53.282;6.150;2023-01-10T00:55:45;101088.31;;;15.68;61.80
62126;BME280;48112;53.282;6.150;2023-01-10T00:56:49;101092.97;;;15.67;61.90
62126;BME280;48112;53.282;6.150;2023-01-10T00:57:51;101091.06;;;15.68;61.79
62126;BME280;48112;53.282;6.150;2023-01-10T00:58:53;101087.53;;;15.67;61.83
62126;BME280;48112;53.282;6.150;2023-01-10T00:59:55;101089.47;;;15.67;61.84
62126;BME280;48112;53.282;6.150;2023-01-10T01:00:58;101095.69;;;15.67;61.75
62126;BME280;48112;53.282;6.150;2023-01-10T01:01:59;101086.75;;;15.67;61.67
62126;BME280;48112;53.282;6.150;2023-01-10T01:03:02;101092.19;;;15.67;61.73
62126;BME280;48112;53.282;6.150;2023-01-10T01:04:04;101094.13;;;15.66;61.54
62126;BME280;48112;53.282;6.150;2023-01-10T01:05:07;101092.19;;;15.67;61.88
62126;BME280;48112;53.282;6.150;2023-01-10T01:06:09;101091.41;;;15.66;61.80
62126;BME280;48112;53.282;6.150;2023-01-10T01:07:11;101096.88;;;15.66;61.67
62126;BME280;48112;53.282;6.150;2023-01-10T01:08:14;101101.16;;;15.67;61.66
62126;BME280;48112;53.282;6.150;2023-01-10T01:09:17;101094.91;;;15.67;61.79
62126;BME280;48112;53.282;6.150;2023-01-10T01:10:20;101096.88;;;15.66;61.77
62126;BME280;48112;53.282;6.150;2023-01-10T01:11:27;101105.03;;;15.66;61.51
62126;BME280;48112;53.282;6.150;2023-01-10T01:12:32;101108.50;;;15.67;61.69
62126;BME280;48112;53.282;6.150;2023-01-10T01:13:33;101102.31;;;15.66;61.66
62126;BME280;48112;53.282;6.150;2023-01-10T01:14:36;101106.16;;;15.65;61.57
62126;BME280;48112;53.282;6.150;2023-01-10T01:15:38;101111.22;;;15.67;61.55
62126;BME280;48112;53.282;6.150;2023-01-10T01:16:40;101109.69;;;15.66;61.52
62126;BME280;48112;53.282;6.150;2023-01-10T01:17:42;101115.91;;;15.66;61.64
62126;BME280;48112;53.282;6.150;2023-01-10T01:18:45;101114.31;;;15.65;61.61
62126;BME280;48112;53.282;6.150;2023-01-10T01:19:46;101119.41;;;15.67;61.52
62126;BME280;48112;53.282;6.150;2023-01-10T01:20:51;101122.50;;;15.65;61.43
62126;BME280;48112;53.282;6.150;2023-01-10T01:21:54;101117.84;;;15.66;61.57
62126;BME280;48112;53.282;6.150;2023-01-10T01:22:56;101124.09;;;15.66;61.84
62126;BME280;48112;53.282;6.150;2023-01-10T01:23:58;101124.09;;;15.66;61.46
62126;BME280;48112;53.282;6.150;2023-01-10T01:25:00;101129.53;;;15.66;61.62
62126;BME280;48112;53.282;6.150;2023-01-10T01:26:04;101121.34;;;15.66;61.56
62126;BME280;48112;53.282;6.150;2023-01-10T01:27:06;101123.28;;;15.66;61.40
62126;BME280;48112;53.282;6.150;2023-01-10T01:28:10;101127.56;;;15.67;61.58
62126;BME280;48112;53.282;6.150;2023-01-10T01:29:12;101131.09;;;15.67;61.45
62126;BME280;48112;53.282;6.150;2023-01-10T01:30:16;101131.44;;;15.66;61.30
62126;BME280;48112;53.282;6.150;2023-01-10T01:31:18;101127.94;;;15.65;61.37
62126;BME280;48112;53.282;6.150;2023-01-10T01:32:20;101120.56;;;15.66;61.42
62126;BME280;48112;53.282;6.150;2023-01-10T01:33:22;101117.84;;;15.66;61.25
62126;BME280;48112;53.282;6.150;2023-01-10T01:34:25;101126.00;;;15.66;61.29
62126;BME280;48112;53.282;6.150;2023-01-10T01:35:26;101133.38;;;15.65;61.25
62126;BME280;48112;53.282;6.150;2023-01-10T01:36:29;101131.81;;;15.64;61.41
62126;BME280;48112;53.282;6.150;2023-01-10T01:37:30;101141.53;;;15.65;61.23
62126;BME280;48112;53.282;6.150;2023-01-10T01:38:34;101143.50;;;15.65;61.46
62126;BME280;48112;53.282;6.150;2023-01-10T01:39:35;101147.00;;;15.65;61.25
62126;BME280;48112;53.282;6.150;2023-01-10T01:40:38;101151.31;;;15.66;61.21
62126;BME280;48112;53.282;6.150;2023-01-10T01:41:41;101157.88;;;15.65;61.21
62126;BME280;48112;53.282;6.150;2023-01-10T01:43:00;101158.69;;;15.66;61.39
62126;BME280;48112;53.282;6.150;2023-01-10T01:44:05;101155.16;;;15.65;61.41
62126;BME280;48112;53.282;6.150;2023-01-10T01:45:25;101153.59;;;15.64;61.11
62126;BME280;48112;53.282;6.150;2023-01-10T01:46:31;101159.84;;;15.65;61.19
62126;BME280;48112;53.282;6.150;2023-01-10T01:47:35;101165.28;;;15.65;61.18
62126;BME280;48112;53.282;6.150;2023-01-10T01:48:40;101164.47;;;15.64;61.31
62126;BME280;48112;53.282;6.150;2023-01-10T01:49:44;101169.94;;;15.64;61.20
62126;BME280;48112;53.282;6.150;2023-01-10T01:50:47;101174.22;;;15.65;61.47
62126;BME280;48112;53.282;6.150;2023-01-10T01:51:53;101169.94;;;15.64;61.30
62126;BME280;48112;53.282;6.150;2023-01-10T01:52:57;101164.47;;;15.64;61.22
62126;BME280;48112;53.282;6.150;2023-01-10T01:54:02;101164.47;;;15.64;61.24
62126;BME280;48112;53.282;6.150;2023-01-10T01:55:07;101169.94;;;15.64;61.27
62126;BME280;48112;53.282;6.150;2023-01-10T01:56:10;101168.38;;;15.63;61.23
62126;BME280;48112;53.282;6.150;2023-01-10T01:57:16;101173.81;;;15.63;61.12
62126;BME280;48112;53.282;6.150;2023-01-10T01:58:19;101176.53;;;15.63;61.29
62126;BME280;48112;53.282;6.150;2023-01-10T01:59:27;101176.53;;;15.63;61.22
62126;BME280;48112;53.282;6.150;2023-01-10T02:00:30;101179.25;;;15.63;61.18
62126;BME280;48112;53.282;6.150;2023-01-10T02:01:32;101182.75;;;15.64;61.01
62126;BME280;48112;53.282;6.150;2023-01-10T02:02:36;101187.41;;;15.63;61.15
62126;BME280;48112;53.282;6.150;2023-01-10T02:03:40;101176.53;;;15.63;61.07
62126;BME280;48112;53.282;6.150;2023-01-10T02:04:45;101180.03;;;15.64;61.41
62126;BME280;48112;53.282;6.150;2023-01-10T02:05:48;101182.75;;;15.64;61.10
62126;BME280;48112;53.282;6.150;2023-01-10T02:06:51;101178.47;;;15.63;60.98
62126;BME280;48112;53.282;6.150;2023-01-10T02:07:55;101184.69;;;15.63;60.90
62126;BME280;48112;53.282;6.150;2023-01-10T02:09:01;101181.97;;;15.63;61.07
62126;BME280;48112;53.282;6.150;2023-01-10T02:10:05;101177.66;;;15.62;61.13
62126;BME280;48112;53.282;6.150;2023-01-10T02:11:08;101172.22;;;15.62;61.16
62126;BME280;48112;53.282;6.150;2023-01-10T02:12:10;101190.16;;;15.63;60.98
62126;BME280;48112;53.282;6.150;2023-01-10T02:13:14;101184.69;;;15.63;60.98
62126;BME280;48112;53.282;6.150;2023-01-10T02:14:18;101179.25;;;15.63;61.00
62126;BME280;48112;53.282;6.150;2023-01-10T02:15:23;101183.09;;;15.62;60.94
62126;BME280;48112;53.282;6.150;2023-01-10T02:16:24;101183.09;;;15.62;61.11
62126;BME280;48112;53.282;6.150;2023-01-10T02:17:27;101181.56;;;15.61;61.11
62126;BME280;48112;53.282;6.150;2023-01-10T02:18:28;101181.19;;;15.63;61.02
62126;BME280;48112;53.282;6.150;2023-01-10T02:19:35;101177.66;;;15.62;60.85
62126;BME280;48112;53.282;6.150;2023-01-10T02:20:46;101176.53;;;15.63;60.71
62126;BME280;48112;53.282;6.150;2023-01-10T02:23:30;101182.34;;;15.62;61.02
62126;BME280;48112;53.282;6.150;2023-01-10T02:24:46;101183.09;;;15.62;60.85
62126;BME280;48112;53.282;6.150;2023-01-10T02:27:27;101192.44;;;15.61;60.93
62126;BME280;48112;53.282;6.150;2023-01-10T02:28:51;101191.28;;;15.62;60.71
62126;BME280;48112;53.282;6.150;2023-01-10T02:30:13;101191.28;;;15.62;60.85
62126;BME280;48112;53.282;6.150;2023-01-10T02:31:37;101192.44;;;15.61;60.82
62126;BME280;48112;53.282;6.150;2023-01-10T02:32:45;101201.41;;;15.62;60.70
62126;BME280;48112;53.282;6.150;2023-01-10T02:34:05;101190.50;;;15.62;60.72
62126;BME280;48112;53.282;6.150;2023-01-10T02:35:11;101195.16;;;15.61;60.85
62126;BME280;48112;53.282;6.150;2023-01-10T02:36:22;101188.56;;;15.62;60.77
62126;BME280;48112;53.282;6.150;2023-01-10T02:37:31;101192.44;;;15.61;60.84
62126;BME280;48112;53.282;6.150;2023-01-10T02:38:41;101194.38;;;15.61;60.79
62126;BME280;48112;53.282;6.150;2023-01-10T02:39:49;101195.94;;;15.62;60.95
62126;BME280;48112;53.282;6.150;2023-01-10T02:40:56;101195.16;;;15.61;60.73
62126;BME280;48112;53.282;6.150;2023-01-10T02:42:03;101203.31;;;15.61;60.80
62126;BME280;48112;53.282;6.150;2023-01-10T02:43:08;101197.88;;;15.61;60.80
62126;BME280;48112;53.282;6.150;2023-01-10T02:44:13;101209.56;;;15.62;60.80
62126;BME280;48112;53.282;6.150;2023-01-10T02:45:20;101203.31;;;15.61;60.73
62126;BME280;48112;53.282;6.150;2023-01-10T02:46:26;101212.28;;;15.62;60.50
62126;BME280;48112;53.282;6.150;2023-01-10T02:47:33;101209.91;;;15.60;60.63
62126;BME280;48112;53.282;6.150;2023-01-10T02:48:36;101208.78;;;15.61;60.85
62126;BME280;48112;53.282;6.150;2023-01-10T02:49:42;101208.78;;;15.61;60.61
62126;BME280;48112;53.282;6.150;2023-01-10T02:50:54;101223.50;;;15.60;60.69
62126;BME280;48112;53.282;6.150;2023-01-10T02:51:59;101216.13;;;15.61;60.52
62126;BME280;48112;53.282;6.150;2023-01-10T02:53:02;101218.84;;;15.61;60.73
62126;BME280;48112;53.282;6.150;2023-01-10T02:54:07;101219.66;;;15.61;60.58
62126;BME280;48112;53.282;6.150;2023-01-10T02:55:10;101219.66;;;15.61;60.61
62126;BME280;48112;53.282;6.150;2023-01-10T02:57:33;101221.59;;;15.61;60.74
62126;BME280;48112;53.282;6.150;2023-01-10T02:58:46;101218.84;;;15.61;60.62
62126;BME280;48112;53.282;6.150;2023-01-10T03:00:02;101228.94;;;15.60;60.75
62126;BME280;48112;53.282;6.150;2023-01-10T03:01:11;101225.09;;;15.61;60.60
62126;BME280;48112;53.282;6.150;2023-01-10T03:02:20;101226.22;;;15.60;60.66
62126;BME280;48112;53.282;6.150;2023-01-10T03:03:28;101228.94;;;15.60;60.68
62126;BME280;48112;53.282;6.150;2023-01-10T03:04:37;101231.66;;;15.60;60.63
62126;BME280;48112;53.282;6.150;2023-01-10T03:05:49;101237.13;;;15.60;60.64
62126;BME280;48112;53.282;6.150;2023-01-10T03:06:53;101231.66;;;15.60;60.74
62126;BME280;48112;53.282;6.150;2023-01-10T03:08:00;101232.84;;;15.59;60.73
62126;BME280;48112;53.282;6.150;2023-01-10T03:09:05;101241.78;;;15.60;60.75
62126;BME280;48112;53.282;6.150;2023-01-10T03:10:11;101245.28;;;15.60;60.81
62126;BME280;48112;53.282;6.150;2023-01-10T03:11:15;101235.56;;;15.59;60.58
62126;BME280;48112;53.282;6.150;2023-01-10T03:12:38;101235.56;;;15.59;60.67
62126;BME280;48112;53.282;6.150;2023-01-10T03:13:45;101232.84;;;15.59;60.45
62126;BME280;48112;53.282;6.150;2023-01-10T03:14:50;101238.28;;;15.59;60.64
62126;BME280;48112;53.282;6.150;2023-01-10T03:15:53;101238.28;;;15.59;60.50
62126;BME280;48112;53.282;6.150;2023-01-10T03:16:59;101233.63;;;15.60;60.61
62126;BME280;48112;53.282;6.150;2023-01-10T03:18:05;101240.19;;;15.59;60.56
62126;BME280;48112;53.282;6.150;2023-01-10T03:19:10;101253.81;;;15.59;60.47
62126;BME280;48112;53.282;6.150;2023-01-10T03:20:14;101257.34;;;15.59;60.46
62126;BME280;48112;53.282;6.150;2023-01-10T03:21:19;101244.53;;;15.60;60.67
62126;BME280;48112;53.282;6.150;2023-01-10T03:22:21;101249.16;;;15.59;60.50
62126;BME280;48112;53.282;6.150;2023-01-10T03:23:25;101249.16;;;15.59;60.47
62126;BME280;48112;53.282;6.150;2023-01-10T03:24:29;101247.59;;;15.58;60.39
62126;BME280;48112;53.282;6.150;2023-01-10T03:25:33;101253.81;;;15.59;60.40
62126;BME280;48112;53.282;6.150;2023-01-10T03:26:38;101258.50;;;15.58;60.56
62126;BME280;48112;53.282;6.150;2023-01-10T03:27:46;101258.50;;;15.58;60.41
62126;BME280;48112;53.282;6.150;2023-01-10T03:28:54;101254.59;;;15.59;60.51
62126;BME280;48112;53.282;6.150;2023-01-10T03:29:58;101258.50;;;15.58;60.43
62126;BME280;48112;53.282;6.150;2023-01-10T03:31:03;101259.25;;;15.59;60.50
62126;BME280;48112;53.282;6.150;2023-01-10T03:32:06;101255.78;;;15.58;60.34
62126;BME280;48112;53.282;6.150;2023-01-10T03:33:13;101255.78;;;15.58;60.35
62126;BME280;48112;53.282;6.150;2023-01-10T03:34:17;101265.50;;;15.59;60.52
62126;BME280;48112;53.282;6.150;2023-01-10T03:35:22;101268.59;;;15.58;60.41
62126;BME280;48112;53.282;6.150;2023-01-10T03:36:27;101268.22;;;15.59;60.54
62126;BME280;48112;53.282;6.150;2023-01-10T03:37:33;101269.38;;;15.58;60.58
62126;BME280;48112;53.282;6.150;2023-01-10T03:38:40;101270.16;;;15.59;60.41
62126;BME280;48112;53.282;6.150;2023-01-10T03:39:46;101274.03;;;15.58;60.37
62126;BME280;48112;53.282;6.150;2023-01-10T03:40:52;101263.94;;;15.58;60.50
62126;BME280;48112;53.282;6.150;2023-01-10T03:41:58;101275.59;;;15.59;60.34
62126;BME280;48112;53.282;6.150;2023-01-10T03:43:04;101277.53;;;15.58;60.38
62126;BME280;48112;53.282;6.150;2023-01-10T03:44:29;101286.84;;;15.57;60.45
62126;BME280;48112;53.282;6.150;2023-01-10T03:45:47;101288.44;;;15.58;60.54
62126;BME280;48112;53.282;6.150;2023-01-10T03:46:50;101284.13;;;15.57;60.52
62126;BME280;48112;53.282;6.150;2023-01-10T03:47:55;101289.56;;;15.57;60.28
62126;BME280;48112;53.282;6.150;2023-01-10T03:48:58;101283.34;;;15.57;60.34
62126;BME280;48112;53.282;6.150;2023-01-10T03:50:02;101286.06;;;15.57;60.50
62126;BME280;48112;53.282;6.150;2023-01-10T03:51:07;101286.84;;;15.57;60.21
62126;BME280;48112;53.282;6.150;2023-01-10T03:52:12;101277.91;;;15.57;60.31
62126;BME280;48112;53.282;6.150;2023-01-10T03:53:15;101277.91;;;15.57;60.38
62126;BME280;48112;53.282;6.150;2023-01-10T03:54:18;101289.56;;;15.57;60.32
62126;BME280;48112;53.282;6.150;2023-01-10T03:55:20;101284.13;;;15.57;60.24
62126;BME280;48112;53.282;6.150;2023-01-10T03:56:23;101272.47;;;15.57;60.20
62126;BME280;48112;53.282;6.150;2023-01-10T03:57:25;101277.91;;;15.57;60.24
62126;BME280;48112;53.282;6.150;2023-01-10T03:58:28;101270.50;;;15.57;60.33
62126;BME280;48112;53.282;6.150;2023-01-10T03:59:29;101284.13;;;15.57;60.36
62126;BME280;48112;53.282;6.150;2023-01-10T04:00:32;101282.19;;;15.58;60.22
62126;BME280;48112;53.282;6.150;2023-01-10T04:01:34;101281.41;;;15.57;60.37
62126;BME280;48112;53.282;6.150;2023-01-10T04:02:37;101281.41;;;15.57;60.25
62126;BME280;48112;53.282;6.150;2023-01-10T04:03:39;101272.47;;;15.57;60.46
62126;BME280;48112;53.282;6.150;2023-01-10T04:04:41;101284.13;;;15.57;60.16
62126;BME280;48112;53.282;6.150;2023-01-10T04:05:43;101288.00;;;15.56;60.40
62126;BME280;48112;53.282;6.150;2023-01-10T04:06:47;101277.91;;;15.57;60.31
62126;BME280;48112;53.282;6.150;2023-01-10T04:07:49;101290.72;;;15.56;60.37
62126;BME280;48112;53.282;6.150;2023-01-10T04:08:52;101285.28;;;15.56;60.37
62126;BME280;48112;53.282;6.150;2023-01-10T04:09:53;101295.00;;;15.57;60.28
62126;BME280;48112;53.282;6.150;2023-01-10T04:10:56;101298.88;;;15.56;60.24
62126;BME280;48112;53.282;6.150;2023-01-10T04:11:58;101297.72;;;15.57;60.35
62126;BME280;48112;53.282;6.150;2023-01-10T04:13:00;101294.25;;;15.57;60.18
62126;BME280;48112;53.282;6.150;2023-01-10T04:14:02;101303.53;;;15.56;60.11
62126;BME280;48112;53.282;6.150;2023-01-10T04:15:06;101300.44;;;15.57;60.34
62126;BME280;48112;53.282;6.150;2023-01-10T04:16:07;101297.72;;;15.57;60.29
62126;BME280;48112;53.282;6.150;2023-01-10T04:17:11;101306.25;;;15.56;60.30
62126;BME280;48112;53.282;6.150;2023-01-10T04:18:13;101298.88;;;15.56;60.13
62126;BME280;48112;53.282;6.150;2023-01-10T04:19:16;101298.88;;;15.56;60.17
62126;BME280;48112;53.282;6.150;2023-01-10T04:20:18;101305.13;;;15.57;60.11
62126;BME280;48112;53.282;6.150;2023-01-10T04:21:21;101307.06;;;15.56;60.17
62126;BME280;48112;53.282;6.150;2023-01-10T04:22:24;101301.59;;;15.56;60.25
62126;BME280;48112;53.282;6.150;2023-01-10T04:23:26;101309.78;;;15.56;60.07
62126;BME280;48112;53.282;6.150;2023-01-10T04:24:28;101307.06;;;15.56;60.13
62126;BME280;48112;53.282;6.150;2023-01-10T04:25:30;101317.94;;;15.56;60.14
62126;BME280;48112;53.282;6.150;2023-01-10T04:26:33;101320.66;;;15.56;60.21
62126;BME280;48112;53.282;6.150;2023-01-10T04:27:35;101320.66;;;15.56;60.25
62126;BME280;48112;53.282;6.150;2023-01-10T04:28:37;101319.88;;;15.56;60.14
62126;BME280;48112;53.282;6.150;2023-01-10T04:29:40;101315.22;;;15.56;60.04
62126;BME280;48112;53.282;6.150;2023-01-10T04:30:42;101323.38;;;15.56;60.13
62126;BME280;48112;53.282;6.150;2023-01-10T04:31:45;101320.66;;;15.56;60.30
62126;BME280;48112;53.282;6.150;2023-01-10T04:32:46;101327.25;;;15.55;60.23
62126;BME280;48112;53.282;6.150;2023-01-10T04:33:49;101325.31;;;15.56;60.06
62126;BME280;48112;53.282;6.150;2023-01-10T04:34:50;101319.09;;;15.55;60.18
62126;BME280;48112;53.282;6.150;2023-01-10T04:35:54;101324.53;;;15.55;59.94
62126;BME280;48112;53.282;6.150;2023-01-10T04:36:55;101319.09;;;15.55;60.04
62126;BME280;48112;53.282;6.150;2023-01-10T04:37:59;101327.25;;;15.55;59.98
62126;BME280;48112;53.282;6.150;2023-01-10T04:39:01;101329.97;;;15.55;59.82
62126;BME280;48112;53.282;6.150;2023-01-10T04:40:05;101338.16;;;15.55;59.97
62126;BME280;48112;53.282;6.150;2023-01-10T04:41:07;101346.31;;;15.55;59.93
62126;BME280;48112;53.282;6.150;2023-01-10T04:42:10;101336.19;;;15.56;60.16
62126;BME280;48112;53.282;6.150;2023-01-10T04:43:13;101340.88;;;15.55;60.06
62126;BME280;48112;53.282;6.150;2023-01-10T04:44:15;101343.59;;;15.55;59.91
62126;BME280;48112;53.282;6.150;2023-01-10T04:45:17;101346.31;;;15.55;59.99
62126;BME280;48112;53.282;6.150;2023-01-10T04:46:23;101340.88;;;15.55;60.05
62126;BME280;48112;53.282;6.150;2023-01-10T04:47:25;101349.03;;;15.55;59.87
62126;BME280;48112;53.282;6.150;2023-01-10T04:48:27;101348.25;;;15.55;59.85
62126;BME280;48112;53.282;6.150;2023-01-10T04:49:29;101350.97;;;15.55;59.99
62126;BME280;48112;53.282;6.150;2023-01-10T04:50:32;101350.16;;;15.54;59.98
62126;BME280;48112;53.282;6.150;2023-01-10T04:51:34;101350.97;;;15.55;60.02
62126;BME280;48112;53.282;6.150;2023-01-10T04:52:36;101350.97;;;15.55;59.98
62126;BME280;48112;53.282;6.150;2023-01-10T04:53:40;101355.59;;;15.54;59.96
62126;BME280;48112;53.282;6.150;2023-01-10T04:54:43;101352.88;;;15.54;60.08
62126;BME280;48112;53.282;6.150;2023-01-10T04:55:46;101359.50;;;15.53;60.07
62126;BME280;48112;53.282;6.150;2023-01-10T04:56:48;101350.16;;;15.54;59.94
62126;BME280;48112;53.282;6.150;2023-01-10T04:57:50;101352.88;;;15.54;60.03
62126;BME280;48112;53.282;6.150;2023-01-10T04:58:52;101354.84;;;15.54;60.00
62126;BME280;48112;53.282;6.150;2023-01-10T04:59:55;101356.41;;;15.55;59.87
62126;BME280;48112;53.282;6.150;2023-01-10T05:00:57;101361.06;;;15.54;59.87
62126;BME280;48112;53.282;6.150;2023-01-10T05:02:00;101359.50;;;15.53;60.00
62126;BME280;48112;53.282;6.150;2023-01-10T05:03:01;101375.81;;;15.53;59.81
62126;BME280;48112;53.282;6.150;2023-01-10T05:04:05;101379.34;;;15.54;59.88
62126;BME280;48112;53.282;6.150;2023-01-10T05:05:06;101378.53;;;15.53;59.83
62126;BME280;48112;53.282;6.150;2023-01-10T05:06:09;101380.09;;;15.54;59.98
62126;BME280;48112;53.282;6.150;2023-01-10T05:07:11;101375.81;;;15.53;59.86
62126;BME280;48112;53.282;6.150;2023-01-10T05:08:14;101375.81;;;15.53;59.91
62126;BME280;48112;53.282;6.150;2023-01-10T05:09:17;101382.06;;;15.54;59.89
62126;BME280;48112;53.282;6.150;2023-01-10T05:10:20;101383.97;;;15.53;59.85
62126;BME280;48112;53.282;6.150;2023-01-10T05:11:22;101392.16;;;15.53;59.86
62126;BME280;48112;53.282;6.150;2023-01-10T05:12:24;101385.91;;;15.53;59.92
62126;BME280;48112;53.282;6.150;2023-01-10T05:13:26;101392.94;;;15.54;59.83
62126;BME280;48112;53.282;6.150;2023-01-10T05:14:29;101391.34;;;15.53;59.91
62126;BME280;48112;53.282;6.150;2023-01-10T05:15:31;101392.16;;;15.53;59.89
62126;BME280;48112;53.282;6.150;2023-01-10T05:16:33;101392.16;;;15.53;60.01
62126;BME280;48112;53.282;6.150;2023-01-10T05:17:35;101394.06;;;15.53;59.99
62126;BME280;48112;53.282;6.150;2023-01-10T05:18:38;101392.16;;;15.53;59.96
62126;BME280;48112;53.282;6.150;2023-01-10T05:19:39;101399.50;;;15.53;59.95
62126;BME280;48112;53.282;6.150;2023-01-10T05:20:42;101394.06;;;15.53;59.88
62126;BME280;48112;53.282;6.150;2023-01-10T05:21:44;101403.03;;;15.53;59.71
62126;BME280;48112;53.282;6.150;2023-01-10T05:22:47;101404.19;;;15.52;59.88
62126;BME280;48112;53.282;6.150;2023-01-10T05:23:49;101401.47;;;15.52;59.70
62126;BME280;48112;53.282;6.150;2023-01-10T05:24:53;101401.47;;;15.52;59.93
62126;BME280;48112;53.282;6.150;2023-01-10T05:25:55;101398.75;;;15.52;59.72
62126;BME280;48112;53.282;6.150;2023-01-10T05:26:57;101396.78;;;15.53;59.78
62126;BME280;48112;53.282;6.150;2023-01-10T05:27:59;101401.47;;;15.52;59.61
62126;BME280;48112;53.282;6.150;2023-01-10T05:29:02;101393.31;;;15.52;59.74
62126;BME280;48112;53.282;6.150;2023-01-10T05:30:04;101393.31;;;15.52;59.69
62126;BME280;48112;53.282;6.150;2023-01-10T05:31:07;101394.06;;;15.53;59.91
62126;BME280;48112;53.282;6.150;2023-01-10T05:32:09;101396.78;;;15.53;59.84
62126;BME280;48112;53.282;6.150;2023-01-10T05:33:12;101397.59;;;15.53;59.86
62126;BME280;48112;53.282;6.150;2023-01-10T05:34:13;101408.47;;;15.53;59.70
62126;BME280;48112;53.282;6.150;2023-01-10T05:35:16;101396.03;;;15.52;59.77
62126;BME280;48112;53.282;6.150;2023-01-10T05:36:18;101404.19;;;15.52;59.88
62126;BME280;48112;53.282;6.150;2023-01-10T05:37:20;101404.19;;;15.52;59.77
62126;BME280;48112;53.282;6.150;2023-01-10T05:38:22;101401.47;;;15.52;59.93
62126;BME280;48112;53.282;6.150;2023-01-10T05:39:25;101406.91;;;15.52;59.78
62126;BME280;48112;53.282;6.150;2023-01-10T05:40:28;101394.44;;;15.51;59.66